sensor_id;sensor_type;location;lat;lon;timestamp;temperature;humidity
20174;DHT22;10246;50.620;7.232;2023-06-19T00:00:49;22.60;1.00
20174;DHT22;10246;50.620;7.232;2023-06-19T00:03:17;22.60;1.00
20174;DHT22;10246;50.620;7.232;2023-06-19T00:05:43;22.50;1.00
20174;DHT22;10246;50.620;7.232;2023-06-19T00:08:10;22.60;1.00
20174;DHT22;10246;50.620;7.232;2023-06-19T00:10:37;22.40;1.00
20174;DHT22;10246;50.620;7.232;2023-06-19T00:13:04;22.40;1.00
20174;DHT22;10246;50.620;7.232;2023-06-19T00:15:31;22.40;1.00
20174;DHT22;10246;50.620;7.232;2023-06-19T00:17:57;22.40;1.00
20174;DHT22;10246;50.620;7.232;2023-06-19T00:20:26;22.30;1.00
20174;DHT22;10246;50.620;7.232;2023-06-19T00:22:53;22.30;1.00
20174;DHT22;10246;50.620;7.232;2023-06-19T00:25:19;22.30;1.00
20174;DHT22;10246;50.620;7.232;2023-06-19T00:27:46;22.20;1.00
20174;DHT22;10246;50.620;7.232;2023-06-19T00:30:14;22.20;1.00
20174;DHT22;10246;50.620;7.232;2023-06-19T00:32:41;22.20;1.00
20174;DHT22;10246;50.620;7.232;2023-06-19T00:35:13;22.20;1.00
20174;DHT22;10246;50.620;7.232;2023-06-19T00:37:42;22.10;1.00
20174;DHT22;10246;50.620;7.232;2023-06-19T00:40:15;22.10;1.00
20174;DHT22;10246;50.620;7.232;2023-06-19T00:42:43;22.00;1.00
20174;DHT22;10246;50.620;7.232;2023-06-19T00:45:10;21.90;1.00
20174;DHT22;10246;50.620;7.232;2023-06-19T00:47:37;21.90;1.00
20174;DHT22;10246;50.620;7.232;2023-06-19T00:50:05;21.80;1.00
20174;DHT22;10246;50.620;7.232;2023-06-19T00:52:32;21.50;1.00
20174;DHT22;10246;50.620;7.232;2023-06-19T00:55:00;21.40;1.00
20174;DHT22;10246;50.620;7.232;2023-06-19T00:57:29;21.40;1.00
20174;DHT22;10246;50.620;7.232;2023-06-19T00:59:57;21.50;1.00
20174;DHT22;10246;50.620;7.232;2023-06-19T01:02:24;21.50;1.00
20174;DHT22;10246;50.620;7.232;2023-06-19T01:04:54;21.60;1.00
20174;DHT22;10246;50.620;7.232;2023-06-19T01:07:27;21.60;1.00
20174;DHT22;10246;50.620;7.232;2023-06-19T01:09:58;21.50;1.00
20174;DHT22;10246;50.620;7.232;2023-06-19T01:12:32;21.50;1.00
20174;DHT22;10246;50.620;7.232;2023-06-19T01:15:02;21.50;1.00
20174;DHT22;10246;50.620;7.232;2023-06-19T01:17:30;21.50;1.00
20174;DHT22;10246;50.620;7.232;2023-06-19T01:19:58;21.60;1.00
20174;DHT22;10246;50.620;7.232;2023-06-19T01:22:27;21.70;1.00
20174;DHT22;10246;50.620;7.232;2023-06-19T01:24:54;21.60;1.00
20174;DHT22;10246;50.620;7.232;2023-06-19T01:27:21;21.50;1.00
20174;DHT22;10246;50.620;7.232;2023-06-19T01:29:48;21.50;1.00
20174;DHT22;10246;50.620;7.232;2023-06-19T01:32:18;21.50;1.00
20174;DHT22;10246;50.620;7.232;2023-06-19T01:34:46;21.50;1.00
20174;DHT22;10246;50.620;7.232;2023-06-19T01:37:13;21.60;1.00
20174;DHT22;10246;50.620;7.232;2023-06-19T01:39:43;21.70;1.00
20174;DHT22;10246;50.620;7.232;2023-06-19T01:42:11;21.70;1.00
20174;DHT22;10246;50.620;7.232;2023-06-19T01:44:39;21.70;1.00
20174;DHT22;10246;50.620;7.232;2023-06-19T01:47:10;21.80;1.00
20174;DHT22;10246;50.620;7.232;2023-06-19T01:49:37;22.00;1.00
20174;DHT22;10246;50.620;7.232;2023-06-19T01:52:05;22.20;1.00
20174;DHT22;10246;50.620;7.232;2023-06-19T01:54:31;22.40;1.00
20174;DHT22;10246;50.620;7.232;2023-06-19T01:57:00;22.40;1.00
20174;DHT22;10246;50.620;7.232;2023-06-19T01:59:26;22.50;1.00
20174;DHT22;10246;50.620;7.232;2023-06-19T02:01:53;22.50;1.00
20174;DHT22;10246;50.620;7.232;2023-06-19T02:04:20;22.50;1.00
20174;DHT22;10246;50.620;7.232;2023-06-19T02:06:47;22.50;1.00
20174;DHT22;10246;50.620;7.232;2023-06-19T02:09:14;22.40;1.00
20174;DHT22;10246;50.620;7.232;2023-06-19T02:11:41;22.30;1.00
20174;DHT22;10246;50.620;7.232;2023-06-19T02:14:09;22.20;1.00
20174;DHT22;10246;50.620;7.232;2023-06-19T02:16:37;22.10;1.00
20174;DHT22;10246;50.620;7.232;2023-06-19T02:19:03;22.00;1.00
20174;DHT22;10246;50.620;7.232;2023-06-19T02:21:30;21.90;1.00
20174;DHT22;10246;50.620;7.232;2023-06-19T02:23:57;22.00;1.00
20174;DHT22;10246;50.620;7.232;2023-06-19T02:26:23;22.00;1.00
20174;DHT22;10246;50.620;7.232;2023-06-19T02:28:53;22.10;1.00
20174;DHT22;10246;50.620;7.232;2023-06-19T02:31:21;22.20;1.00
20174;DHT22;10246;50.620;7.232;2023-06-19T02:33:47;22.40;1.00
20174;DHT22;10246;50.620;7.232;2023-06-19T02:36:14;22.50;1.00
20174;DHT22;10246;50.620;7.232;2023-06-19T02:38:45;22.50;1.00
20174;DHT22;10246;50.620;7.232;2023-06-19T02:41:11;22.50;1.00
20174;DHT22;10246;50.620;7.232;2023-06-19T02:43:39;22.60;1.00
20174;DHT22;10246;50.620;7.232;2023-06-19T02:46:05;22.80;1.00
20174;DHT22;10246;50.620;7.232;2023-06-19T02:48:34;22.80;1.00
20174;DHT22;10246;50.620;7.232;2023-06-19T02:51:00;22.90;1.00
20174;DHT22;10246;50.620;7.232;2023-06-19T02:53:27;22.70;1.00
20174;DHT22;10246;50.620;7.232;2023-06-19T02:55:54;22.60;1.00
20174;DHT22;10246;50.620;7.232;2023-06-19T02:58:20;22.60;1.00
20174;DHT22;10246;50.620;7.232;2023-06-19T03:00:48;22.50;1.00
20174;DHT22;10246;50.620;7.232;2023-06-19T03:03:15;22.50;1.00
20174;DHT22;10246;50.620;7.232;2023-06-19T03:05:43;22.50;1.00
20174;DHT22;10246;50.620;7.232;2023-06-19T03:08:10;22.30;1.00
20174;DHT22;10246;50.620;7.232;2023-06-19T03:10:39;22.40;1.00
20174;DHT22;10246;50.620;7.232;2023-06-19T03:13:05;22.30;1.00
20174;DHT22;10246;50.620;7.232;2023-06-19T03:15:32;22.20;1.00
20174;DHT22;10246;50.620;7.232;2023-06-19T03:17:59;22.10;1.00
20174;DHT22;10246;50.620;7.232;2023-06-19T03:20:28;22.10;1.00
20174;DHT22;10246;50.620;7.232;2023-06-19T03:22:56;22.10;1.00
20174;DHT22;10246;50.620;7.232;2023-06-19T03:25:23;22.00;1.00
20174;DHT22;10246;50.620;7.232;2023-06-19T03:27:50;22.00;1.00
20174;DHT22;10246;50.620;7.232;2023-06-19T03:30:16;22.00;1.00
20174;DHT22;10246;50.620;7.232;2023-06-19T03:32:44;22.00;1.00
20174;DHT22;10246;50.620;7.232;2023-06-19T03:35:10;21.90;1.00
20174;DHT22;10246;50.620;7.232;2023-06-19T03:37:37;21.80;1.00
20174;DHT22;10246;50.620;7.232;2023-06-19T03:40:06;21.80;1.00
20174;DHT22;10246;50.620;7.232;2023-06-19T03:42:34;21.80;1.00
20174;DHT22;10246;50.620;7.232;2023-06-19T03:45:01;21.80;1.00
20174;DHT22;10246;50.620;7.232;2023-06-19T03:47:28;21.80;1.00
20174;DHT22;10246;50.620;7.232;2023-06-19T03:49:54;21.70;1.00
20174;DHT22;10246;50.620;7.232;2023-06-19T03:52:21;21.60;1.00
20174;DHT22;10246;50.620;7.232;2023-06-19T03:54:48;21.60;1.00
20174;DHT22;10246;50.620;7.232;2023-06-19T03:57:16;21.50;1.00
20174;DHT22;10246;50.620;7.232;2023-06-19T03:59:43;21.50;1.00
20174;DHT22;10246;50.620;7.232;2023-06-19T04:02:12;21.50;1.00
20174;DHT22;10246;50.620;7.232;2023-06-19T04:04:39;21.50;1.00
20174;DHT22;10246;50.620;7.232;2023-06-19T04:07:06;21.50;1.00
20174;DHT22;10246;50.620;7.232;2023-06-19T04:09:32;21.50;1.00
20174;DHT22;10246;50.620;7.232;2023-06-19T04:11:59;21.50;1.00
20174;DHT22;10246;50.620;7.232;2023-06-19T04:14:27;21.40;1.00
20174;DHT22;10246;50.620;7.232;2023-06-19T04:16:54;21.40;1.00
20174;DHT22;10246;50.620;7.232;2023-06-19T04:19:21;21.50;1.00
20174;DHT22;10246;50.620;7.232;2023-06-19T04:21:50;21.40;1.00
20174;DHT22;10246;50.620;7.232;2023-06-19T04:24:16;21.30;1.00
20174;DHT22;10246;50.620;7.232;2023-06-19T04:26:43;21.30;1.00
20174;DHT22;10246;50.620;7.232;2023-06-19T04:29:10;21.30;1.00
20174;DHT22;10246;50.620;7.232;2023-06-19T04:31:43;21.30;1.00
20174;DHT22;10246;50.620;7.232;2023-06-19T04:34:15;21.30;1.00
20174;DHT22;10246;50.620;7.232;2023-06-19T04:36:42;21.30;1.00
20174;DHT22;10246;50.620;7.232;2023-06-19T04:39:09;21.30;1.00
20174;DHT22;10246;50.620;7.232;2023-06-19T04:41:36;21.20;1.00
20174;DHT22;10246;50.620;7.232;2023-06-19T04:44:04;21.20;1.00
20174;DHT22;10246;50.620;7.232;2023-06-19T04:46:31;21.20;1.00
20174;DHT22;10246;50.620;7.232;2023-06-19T04:48:59;21.40;1.00
20174;DHT22;10246;50.620;7.232;2023-06-19T04:51:29;21.50;1.00
20174;DHT22;10246;50.620;7.232;2023-06-19T04:53:56;21.60;1.00
20174;DHT22;10246;50.620;7.232;2023-06-19T04:56:22;21.60;1.00
20174;DHT22;10246;50.620;7.232;2023-06-19T04:58:49;21.80;1.00
20174;DHT22;10246;50.620;7.232;2023-06-19T05:01:17;21.80;1.00
20174;DHT22;10246;50.620;7.232;2023-06-19T05:03:48;21.80;1.00
20174;DHT22;10246;50.620;7.232;2023-06-19T05:06:16;21.80;1.00
20174;DHT22;10246;50.620;7.232;2023-06-19T05:08:43;21.80;1.00
20174;DHT22;10246;50.620;7.232;2023-06-19T05:11:17;21.90;1.00
20174;DHT22;10246;50.620;7.232;2023-06-19T05:13:44;22.00;1.00
20174;DHT22;10246;50.620;7.232;2023-06-19T05:16:11;22.00;1.00
20174;DHT22;10246;50.620;7.232;2023-06-19T05:18:41;22.00;1.00
20174;DHT22;10246;50.620;7.232;2023-06-19T05:21:08;22.00;1.00
20174;DHT22;10246;50.620;7.232;2023-06-19T05:23:36;22.20;1.00
20174;DHT22;10246;50.620;7.232;2023-06-19T05:26:04;22.20;1.00
20174;DHT22;10246;50.620;7.232;2023-06-19T05:28:30;22.20;1.00
20174;DHT22;10246;50.620;7.232;2023-06-19T05:30:57;22.20;1.00
20174;DHT22;10246;50.620;7.232;2023-06-19T05:33:24;22.30;1.00
20174;DHT22;10246;50.620;7.232;2023-06-19T05:35:51;22.30;1.00
20174;DHT22;10246;50.620;7.232;2023-06-19T05:38:19;22.40;1.00
20174;DHT22;10246;50.620;7.232;2023-06-19T05:40:47;22.30;1.00
20174;DHT22;10246;50.620;7.232;2023-06-19T05:43:14;22.40;1.00
20174;DHT22;10246;50.620;7.232;2023-06-19T05:45:41;22.50;1.00
20174;DHT22;10246;50.620;7.232;2023-06-19T05:48:07;22.60;1.00
20174;DHT22;10246;50.620;7.232;2023-06-19T05:50:34;22.70;1.00
20174;DHT22;10246;50.620;7.232;2023-06-19T05:53:01;22.70;1.00
20174;DHT22;10246;50.620;7.232;2023-06-19T05:55:27;22.80;1.00
20174;DHT22;10246;50.620;7.232;2023-06-19T05:57:55;22.80;1.00
20174;DHT22;10246;50.620;7.232;2023-06-19T06:00:22;22.80;1.00
20174;DHT22;10246;50.620;7.232;2023-06-19T06:02:49;22.80;1.00
20174;DHT22;10246;50.620;7.232;2023-06-19T06:05:17;22.90;1.00
20174;DHT22;10246;50.620;7.232;2023-06-19T06:07:44;22.90;1.00
20174;DHT22;10246;50.620;7.232;2023-06-19T06:10:11;23.00;1.00
20174;DHT22;10246;50.620;7.232;2023-06-19T06:12:38;23.00;1.00
20174;DHT22;10246;50.620;7.232;2023-06-19T06:15:07;23.10;1.00
20174;DHT22;10246;50.620;7.232;2023-06-19T06:17:34;23.20;1.00
20174;DHT22;10246;50.620;7.232;2023-06-19T06:20:00;23.30;1.00
20174;DHT22;10246;50.620;7.232;2023-06-19T06:22:31;23.50;1.00
20174;DHT22;10246;50.620;7.232;2023-06-19T06:24:58;23.60;1.00
20174;DHT22;10246;50.620;7.232;2023-06-19T06:27:25;23.70;1.00
20174;DHT22;10246;50.620;7.232;2023-06-19T06:29:52;23.80;1.00
20174;DHT22;10246;50.620;7.232;2023-06-19T06:32:20;23.80;1.00
20174;DHT22;10246;50.620;7.232;2023-06-19T06:34:47;23.80;1.00
20174;DHT22;10246;50.620;7.232;2023-06-19T06:37:14;23.90;1.00
20174;DHT22;10246;50.620;7.232;2023-06-19T06:39:45;23.90;1.00
20174;DHT22;10246;50.620;7.232;2023-06-19T06:42:12;24.00;1.00
20174;DHT22;10246;50.620;7.232;2023-06-19T06:44:38;24.00;1.00
20174;DHT22;10246;50.620;7.232;2023-06-19T06:47:05;24.10;1.00
20174;DHT22;10246;50.620;7.232;2023-06-19T06:49:33;24.10;1.00
20174;DHT22;10246;50.620;7.232;2023-06-19T06:52:02;24.20;1.00
20174;DHT22;10246;50.620;7.232;2023-06-19T06:54:28;24.20;1.00
20174;DHT22;10246;50.620;7.232;2023-06-19T06:56:55;24.20;1.00
20174;DHT22;10246;50.620;7.232;2023-06-19T06:59:23;24.20;1.00
20174;DHT22;10246;50.620;7.232;2023-06-19T07:01:51;24.20;1.00
20174;DHT22;10246;50.620;7.232;2023-06-19T07:04:18;24.30;1.00
20174;DHT22;10246;50.620;7.232;2023-06-19T07:06:46;24.20;1.00
20174;DHT22;10246;50.620;7.232;2023-06-19T07:09:14;24.30;1.00
20174;DHT22;10246;50.620;7.232;2023-06-19T07:11:41;24.40;1.00
20174;DHT22;10246;50.620;7.232;2023-06-19T07:14:08;24.40;1.00
20174;DHT22;10246;50.620;7.232;2023-06-19T07:16:34;24.60;1.00
20174;DHT22;10246;50.620;7.232;2023-06-19T07:19:01;24.60;1.00
20174;DHT22;10246;50.620;7.232;2023-06-19T07:21:29;24.80;1.00
20174;DHT22;10246;50.620;7.232;2023-06-19T07:23:57;24.80;1.00
20174;DHT22;10246;50.620;7.232;2023-06-19T07:26:25;24.90;1.00
20174;DHT22;10246;50.620;7.232;2023-06-19T07:28:52;24.80;1.00
20174;DHT22;10246;50.620;7.232;2023-06-19T07:31:19;24.80;1.00
20174;DHT22;10246;50.620;7.232;2023-06-19T07:33:45;24.80;1.00
20174;DHT22;10246;50.620;7.232;2023-06-19T07:36:12;25.10;1.00
20174;DHT22;10246;50.620;7.232;2023-06-19T07:38:39;25.30;1.00
20174;DHT22;10246;50.620;7.232;2023-06-19T07:41:07;25.60;1.00
20174;DHT22;10246;50.620;7.232;2023-06-19T07:43:35;25.70;1.00
20174;DHT22;10246;50.620;7.232;2023-06-19T07:46:07;25.70;1.00
20174;DHT22;10246;50.620;7.232;2023-06-19T07:48:45;25.80;1.00
20174;DHT22;10246;50.620;7.232;2023-06-19T07:51:13;25.90;1.00
20174;DHT22;10246;50.620;7.232;2023-06-19T07:53:40;26.00;1.00
20174;DHT22;10246;50.620;7.232;2023-06-19T07:56:10;26.00;1.00
20174;DHT22;10246;50.620;7.232;2023-06-19T07:58:36;26.10;1.00
20174;DHT22;10246;50.620;7.232;2023-06-19T08:01:03;26.00;1.00
20174;DHT22;10246;50.620;7.232;2023-06-19T08:03:30;26.00;1.00
20174;DHT22;10246;50.620;7.232;2023-06-19T08:05:57;26.10;1.00
20174;DHT22;10246;50.620;7.232;2023-06-19T08:08:23;26.00;1.00
20174;DHT22;10246;50.620;7.232;2023-06-19T08:10:50;26.00;1.00
20174;DHT22;10246;50.620;7.232;2023-06-19T08:13:18;26.00;1.00
20174;DHT22;10246;50.620;7.232;2023-06-19T08:15:45;26.10;1.00
20174;DHT22;10246;50.620;7.232;2023-06-19T08:18:12;26.10;1.00
20174;DHT22;10246;50.620;7.232;2023-06-19T08:20:38;26.30;1.00
20174;DHT22;10246;50.620;7.232;2023-06-19T08:23:05;26.60;1.00
20174;DHT22;10246;50.620;7.232;2023-06-19T08:25:32;26.70;1.00
20174;DHT22;10246;50.620;7.232;2023-06-19T08:27:59;26.80;1.00
20174;DHT22;10246;50.620;7.232;2023-06-19T08:30:27;26.70;1.00
20174;DHT22;10246;50.620;7.232;2023-06-19T08:32:54;26.70;1.00
20174;DHT22;10246;50.620;7.232;2023-06-19T08:35:20;26.50;1.00
20174;DHT22;10246;50.620;7.232;2023-06-19T08:37:48;26.50;1.00
20174;DHT22;10246;50.620;7.232;2023-06-19T08:40:14;26.50;1.00
20174;DHT22;10246;50.620;7.232;2023-06-19T08:42:41;26.30;1.00
20174;DHT22;10246;50.620;7.232;2023-06-19T08:45:09;26.40;1.00
20174;DHT22;10246;50.620;7.232;2023-06-19T08:47:39;26.50;1.00
20174;DHT22;10246;50.620;7.232;2023-06-19T08:50:07;26.60;1.00
20174;DHT22;10246;50.620;7.232;2023-06-19T08:52:34;26.70;1.00
20174;DHT22;10246;50.620;7.232;2023-06-19T08:55:00;26.70;1.00
20174;DHT22;10246;50.620;7.232;2023-06-19T08:57:34;26.80;1.00
20174;DHT22;10246;50.620;7.232;2023-06-19T09:00:01;27.00;1.00
20174;DHT22;10246;50.620;7.232;2023-06-19T09:02:41;27.00;1.00
20174;DHT22;10246;50.620;7.232;2023-06-19T09:05:13;26.90;1.00
20174;DHT22;10246;50.620;7.232;2023-06-19T09:07:40;27.00;1.00
20174;DHT22;10246;50.620;7.232;2023-06-19T09:10:17;27.20;1.00
20174;DHT22;10246;50.620;7.232;2023-06-19T09:12:55;27.20;1.00
20174;DHT22;10246;50.620;7.232;2023-06-19T09:15:22;27.30;1.00
20174;DHT22;10246;50.620;7.232;2023-06-19T09:18:01;27.40;1.00
20174;DHT22;10246;50.620;7.232;2023-06-19T09:20:28;27.30;1.00
20174;DHT22;10246;50.620;7.232;2023-06-19T09:22:56;27.10;1.00
20174;DHT22;10246;50.620;7.232;2023-06-19T09:25:22;27.00;1.00
20174;DHT22;10246;50.620;7.232;2023-06-19T09:27:52;27.00;1.00
20174;DHT22;10246;50.620;7.232;2023-06-19T09:30:19;27.20;1.00
20174;DHT22;10246;50.620;7.232;2023-06-19T09:32:49;27.30;1.00
20174;DHT22;10246;50.620;7.232;2023-06-19T09:35:18;27.30;1.00
20174;DHT22;10246;50.620;7.232;2023-06-19T09:37:45;27.30;1.00
20174;DHT22;10246;50.620;7.232;2023-06-19T09:40:13;27.40;1.00
20174;DHT22;10246;50.620;7.232;2023-06-19T09:42:41;27.60;1.00
20174;DHT22;10246;50.620;7.232;2023-06-19T09:45:10;27.90;1.00
20174;DHT22;10246;50.620;7.232;2023-06-19T09:47:40;27.80;1.00
20174;DHT22;10246;50.620;7.232;2023-06-19T09:50:11;27.60;1.00
20174;DHT22;10246;50.620;7.232;2023-06-19T09:52:44;27.70;1.00
20174;DHT22;10246;50.620;7.232;2023-06-19T09:55:13;27.90;1.00
20174;DHT22;10246;50.620;7.232;2023-06-19T09:57:40;28.10;1.00
20174;DHT22;10246;50.620;7.232;2023-06-19T10:00:09;28.20;1.00
20174;DHT22;10246;50.620;7.232;2023-06-19T10:02:39;28.20;1.00
20174;DHT22;10246;50.620;7.232;2023-06-19T10:05:09;28.20;1.00
20174;DHT22;10246;50.620;7.232;2023-06-19T10:07:40;28.20;1.00
20174;DHT22;10246;50.620;7.232;2023-06-19T10:10:11;28.30;1.00
20174;DHT22;10246;50.620;7.232;2023-06-19T10:12:40;28.70;1.00
20174;DHT22;10246;50.620;7.232;2023-06-19T10:15:09;28.70;1.00
20174;DHT22;10246;50.620;7.232;2023-06-19T10:17:37;28.80;1.00
20174;DHT22;10246;50.620;7.232;2023-06-19T10:20:05;28.70;1.00
20174;DHT22;10246;50.620;7.232;2023-06-19T10:22:49;28.60;1.00
20174;DHT22;10246;50.620;7.232;2023-06-19T10:25:21;28.60;1.00
20174;DHT22;10246;50.620;7.232;2023-06-19T10:27:48;28.50;1.00
20174;DHT22;10246;50.620;7.232;2023-06-19T10:30:17;28.70;1.00
20174;DHT22;10246;50.620;7.232;2023-06-19T10:32:44;28.80;1.00
20174;DHT22;10246;50.620;7.232;2023-06-19T10:35:12;29.00;1.00
20174;DHT22;10246;50.620;7.232;2023-06-19T10:37:39;28.90;1.00
20174;DHT22;10246;50.620;7.232;2023-06-19T10:40:07;29.20;1.00
20174;DHT22;10246;50.620;7.232;2023-06-19T10:42:38;29.20;1.00
20174;DHT22;10246;50.620;7.232;2023-06-19T10:45:06;29.20;1.00
20174;DHT22;10246;50.620;7.232;2023-06-19T10:47:34;29.40;1.00
20174;DHT22;10246;50.620;7.232;2023-06-19T10:50:01;29.50;1.00
20174;DHT22;10246;50.620;7.232;2023-06-19T10:52:29;29.70;1.00
20174;DHT22;10246;50.620;7.232;2023-06-19T10:54:56;29.80;1.00
20174;DHT22;10246;50.620;7.232;2023-06-19T10:57:27;29.90;1.00
20174;DHT22;10246;50.620;7.232;2023-06-19T10:59:56;30.00;1.00
20174;DHT22;10246;50.620;7.232;2023-06-19T11:02:24;30.00;1.00
20174;DHT22;10246;50.620;7.232;2023-06-19T11:04:52;30.00;1.00
20174;DHT22;10246;50.620;7.232;2023-06-19T11:07:19;30.20;1.00
20174;DHT22;10246;50.620;7.232;2023-06-19T11:09:49;30.20;1.00
20174;DHT22;10246;50.620;7.232;2023-06-19T11:12:19;30.20;1.00
20174;DHT22;10246;50.620;7.232;2023-06-19T11:14:47;30.40;1.00
20174;DHT22;10246;50.620;7.232;2023-06-19T11:17:17;30.40;1.00
20174;DHT22;10246;50.620;7.232;2023-06-19T11:19:46;30.20;1.00
20174;DHT22;10246;50.620;7.232;2023-06-19T11:22:13;30.30;1.00
20174;DHT22;10246;50.620;7.232;2023-06-19T11:24:43;30.30;1.00
20174;DHT22;10246;50.620;7.232;2023-06-19T11:27:17;30.70;1.00
20174;DHT22;10246;50.620;7.232;2023-06-19T11:29:44;30.80;1.00
20174;DHT22;10246;50.620;7.232;2023-06-19T11:32:16;31.00;1.00
20174;DHT22;10246;50.620;7.232;2023-06-19T11:34:48;31.00;1.00
20174;DHT22;10246;50.620;7.232;2023-06-19T11:37:16;31.10;1.00
20174;DHT22;10246;50.620;7.232;2023-06-19T11:39:43;31.30;1.00
20174;DHT22;10246;50.620;7.232;2023-06-19T11:42:11;31.30;1.00
20174;DHT22;10246;50.620;7.232;2023-06-19T11:44:52;31.20;1.00
20174;DHT22;10246;50.620;7.232;2023-06-19T11:47:21;30.80;1.00
20174;DHT22;10246;50.620;7.232;2023-06-19T11:49:49;30.60;1.00
20174;DHT22;10246;50.620;7.232;2023-06-19T11:52:16;30.70;1.00
20174;DHT22;10246;50.620;7.232;2023-06-19T11:54:43;30.90;1.00
20174;DHT22;10246;50.620;7.232;2023-06-19T11:57:10;31.10;1.00
20174;DHT22;10246;50.620;7.232;2023-06-19T11:59:38;31.10;1.00
20174;DHT22;10246;50.620;7.232;2023-06-19T12:02:05;31.10;1.00
20174;DHT22;10246;50.620;7.232;2023-06-19T12:04:34;31.10;1.00
20174;DHT22;10246;50.620;7.232;2023-06-19T12:07:01;31.00;1.00
20174;DHT22;10246;50.620;7.232;2023-06-19T12:09:29;31.00;1.00
20174;DHT22;10246;50.620;7.232;2023-06-19T12:11:57;31.20;1.00
20174;DHT22;10246;50.620;7.232;2023-06-19T12:14:24;31.20;1.00
20174;DHT22;10246;50.620;7.232;2023-06-19T12:16:52;31.40;1.00
20174;DHT22;10246;50.620;7.232;2023-06-19T12:19:18;31.50;1.00
20174;DHT22;10246;50.620;7.232;2023-06-19T12:21:47;31.40;1.00
20174;DHT22;10246;50.620;7.232;2023-06-19T12:24:13;31.30;1.00
20174;DHT22;10246;50.620;7.232;2023-06-19T12:26:40;31.40;1.00
20174;DHT22;10246;50.620;7.232;2023-06-19T12:29:07;31.30;1.00
20174;DHT22;10246;50.620;7.232;2023-06-19T12:31:34;31.10;1.00
20174;DHT22;10246;50.620;7.232;2023-06-19T12:34:01;31.10;1.00
20174;DHT22;10246;50.620;7.232;2023-06-19T12:36:28;31.30;1.00
20174;DHT22;10246;50.620;7.232;2023-06-19T12:38:58;31.40;1.00
20174;DHT22;10246;50.620;7.232;2023-06-19T12:41:25;31.30;1.00
20174;DHT22;10246;50.620;7.232;2023-06-19T12:43:52;31.50;1.00
20174;DHT22;10246;50.620;7.232;2023-06-19T12:46:19;31.60;1.00
20174;DHT22;10246;50.620;7.232;2023-06-19T12:48:46;31.70;1.00
20174;DHT22;10246;50.620;7.232;2023-06-19T12:51:16;31.80;1.00
20174;DHT22;10246;50.620;7.232;2023-06-19T12:53:43;32.10;1.00
20174;DHT22;10246;50.620;7.232;2023-06-19T12:56:11;32.50;1.00
20174;DHT22;10246;50.620;7.232;2023-06-19T12:58:38;32.70;1.00
20174;DHT22;10246;50.620;7.232;2023-06-19T13:01:04;32.40;1.00
20174;DHT22;10246;50.620;7.232;2023-06-19T13:03:31;32.10;1.00
20174;DHT22;10246;50.620;7.232;2023-06-19T13:05:58;32.00;1.00
20174;DHT22;10246;50.620;7.232;2023-06-19T13:08:25;32.00;1.00
20174;DHT22;10246;50.620;7.232;2023-06-19T13:10:52;32.00;1.00
20174;DHT22;10246;50.620;7.232;2023-06-19T13:13:20;32.00;1.00
20174;DHT22;10246;50.620;7.232;2023-06-19T13:15:46;32.30;1.00
20174;DHT22;10246;50.620;7.232;2023-06-19T13:18:13;32.50;1.00
20174;DHT22;10246;50.620;7.232;2023-06-19T13:20:40;32.70;1.00
20174;DHT22;10246;50.620;7.232;2023-06-19T13:23:07;32.70;1.00
20174;DHT22;10246;50.620;7.232;2023-06-19T13:25:33;32.80;1.00
20174;DHT22;10246;50.620;7.232;2023-06-19T13:28:00;32.80;1.00
20174;DHT22;10246;50.620;7.232;2023-06-19T13:30:28;32.60;1.00
20174;DHT22;10246;50.620;7.232;2023-06-19T13:32:55;32.40;1.00
20174;DHT22;10246;50.620;7.232;2023-06-19T13:35:22;32.50;1.00
20174;DHT22;10246;50.620;7.232;2023-06-19T13:37:49;32.80;1.00
20174;DHT22;10246;50.620;7.232;2023-06-19T13:40:15;32.90;1.00
20174;DHT22;10246;50.620;7.232;2023-06-19T13:42:42;33.20;1.00
20174;DHT22;10246;50.620;7.232;2023-06-19T13:45:09;33.10;1.00
20174;DHT22;10246;50.620;7.232;2023-06-19T13:47:38;33.10;1.00
20174;DHT22;10246;50.620;7.232;2023-06-19T13:50:05;33.00;1.00
20174;DHT22;10246;50.620;7.232;2023-06-19T13:52:33;33.10;1.00
20174;DHT22;10246;50.620;7.232;2023-06-19T13:54:59;33.20;1.00
20174;DHT22;10246;50.620;7.232;2023-06-19T13:57:28;33.40;1.00
20174;DHT22;10246;50.620;7.232;2023-06-19T13:59:54;33.70;1.00
20174;DHT22;10246;50.620;7.232;2023-06-19T14:02:21;34.00;1.00
20174;DHT22;10246;50.620;7.232;2023-06-19T14:04:49;33.90;1.00
20174;DHT22;10246;50.620;7.232;2023-06-19T14:07:16;33.20;1.00
20174;DHT22;10246;50.620;7.232;2023-06-19T14:09:44;32.80;1.00
20174;DHT22;10246;50.620;7.232;2023-06-19T14:12:11;32.50;1.00
20174;DHT22;10246;50.620;7.232;2023-06-19T14:14:37;32.70;1.00
20174;DHT22;10246;50.620;7.232;2023-06-19T14:17:04;33.10;1.00
20174;DHT22;10246;50.620;7.232;2023-06-19T14:19:31;33.30;1.00
20174;DHT22;10246;50.620;7.232;2023-06-19T14:22:02;33.50;1.00
20174;DHT22;10246;50.620;7.232;2023-06-19T14:24:29;33.10;1.00
20174;DHT22;10246;50.620;7.232;2023-06-19T14:26:55;33.10;1.00
20174;DHT22;10246;50.620;7.232;2023-06-19T14:29:22;33.00;1.00
20174;DHT22;10246;50.620;7.232;2023-06-19T14:31:50;33.00;1.00
20174;DHT22;10246;50.620;7.232;2023-06-19T14:34:18;33.10;1.00
20174;DHT22;10246;50.620;7.232;2023-06-19T14:36:46;33.10;1.00
20174;DHT22;10246;50.620;7.232;2023-06-19T14:39:14;33.20;1.00
20174;DHT22;10246;50.620;7.232;2023-06-19T14:41:41;33.20;1.00
20174;DHT22;10246;50.620;7.232;2023-06-19T14:44:08;33.00;1.00
20174;DHT22;10246;50.620;7.232;2023-06-19T14:46:35;32.80;1.00
20174;DHT22;10246;50.620;7.232;2023-06-19T14:49:04;32.60;1.00
20174;DHT22;10246;50.620;7.232;2023-06-19T14:51:31;32.60;1.00
20174;DHT22;10246;50.620;7.232;2023-06-19T14:53:58;32.70;1.00
20174;DHT22;10246;50.620;7.232;2023-06-19T14:56:26;32.70;1.00
20174;DHT22;10246;50.620;7.232;2023-06-19T14:58:53;32.70;1.00
20174;DHT22;10246;50.620;7.232;2023-06-19T15:01:19;32.80;1.00
20174;DHT22;10246;50.620;7.232;2023-06-19T15:03:46;32.90;1.00
20174;DHT22;10246;50.620;7.232;2023-06-19T15:06:13;32.70;1.00
20174;DHT22;10246;50.620;7.232;2023-06-19T15:08:40;32.70;1.00
20174;DHT22;10246;50.620;7.232;2023-06-19T15:11:06;32.50;1.00
20174;DHT22;10246;50.620;7.232;2023-06-19T15:13:34;32.70;1.00
20174;DHT22;10246;50.620;7.232;2023-06-19T15:16:01;32.80;1.00
20174;DHT22;10246;50.620;7.232;2023-06-19T15:18:30;33.10;1.00
20174;DHT22;10246;50.620;7.232;2023-06-19T15:20:57;32.80;1.00
20174;DHT22;10246;50.620;7.232;2023-06-19T15:23:24;32.70;1.00
20174;DHT22;10246;50.620;7.232;2023-06-19T15:25:50;32.50;1.00
20174;DHT22;10246;50.620;7.232;2023-06-19T15:28:17;32.30;1.00
20174;DHT22;10246;50.620;7.232;2023-06-19T15:30:45;32.40;1.00
20174;DHT22;10246;50.620;7.232;2023-06-19T15:33:12;32.60;1.00
20174;DHT22;10246;50.620;7.232;2023-06-19T15:35:39;32.90;1.00
20174;DHT22;10246;50.620;7.232;2023-06-19T15:38:06;32.90;1.00
20174;DHT22;10246;50.620;7.232;2023-06-19T15:40:33;33.00;1.00
20174;DHT22;10246;50.620;7.232;2023-06-19T15:43:00;33.00;1.00
20174;DHT22;10246;50.620;7.232;2023-06-19T15:45:27;32.80;1.00
20174;DHT22;10246;50.620;7.232;2023-06-19T15:47:55;32.90;1.00